sensor_id;sensor_type;location;lat;lon;timestamp;pressure;altitude;pressure_sealevel;temperature;humidity
46690;BME280;32423;45.398;10.874;2023-06-22T00:00:25;101040.59;;;26.36;51.36
46690;BME280;32423;45.398;10.874;2023-06-22T00:03:17;101047.41;;;26.35;51.14
46690;BME280;32423;45.398;10.874;2023-06-22T00:06:09;101046.28;;;26.29;51.86
46690;BME280;32423;45.398;10.874;2023-06-22T00:09:04;101055.88;;;26.21;52.12
46690;BME280;32423;45.398;10.874;2023-06-22T00:11:59;101042.78;;;26.18;52.24
46690;BME280;32423;45.398;10.874;2023-06-22T00:14:48;101043.25;;;26.10;52.32
46690;BME280;32423;45.398;10.874;2023-06-22T00:17:43;101049.53;;;26.21;51.85
46690;BME280;32423;45.398;10.874;2023-06-22T00:20:35;101056.75;;;26.15;52.39
46690;BME280;32423;45.398;10.874;2023-06-22T00:23:30;101046.75;;;26.17;52.06
46690;BME280;32423;45.398;10.874;2023-06-22T00:26:25;101041.19;;;26.17;51.96
46690;BME280;32423;45.398;10.874;2023-06-22T00:29:20;101033.53;;;26.28;51.63
46690;BME280;32423;45.398;10.874;2023-06-22T00:32:14;101044.75;;;26.18;52.39
46690;BME280;32423;45.398;10.874;2023-06-22T00:35:10;101034.97;;;26.03;52.65
46690;BME280;32423;45.398;10.874;2023-06-22T00:38:02;101040.94;;;26.05;52.24
46690;BME280;32423;45.398;10.874;2023-06-22T00:40:57;101032.81;;;26.17;51.87
46690;BME280;32423;45.398;10.874;2023-06-22T00:43:49;101044.34;;;26.19;52.11
46690;BME280;32423;45.398;10.874;2023-06-22T00:46:41;101036.09;;;26.09;51.21
46690;BME280;32423;45.398;10.874;2023-06-22T00:49:35;101024.88;;;25.75;52.54
46690;BME280;32423;45.398;10.874;2023-06-22T00:52:28;101022.59;;;26.04;51.48
46690;BME280;32423;45.398;10.874;2023-06-22T00:55:22;101027.78;;;26.02;51.56
46690;BME280;32423;45.398;10.874;2023-06-22T00:58:17;101037.41;;;25.97;52.63
46690;BME280;32423;45.398;10.874;2023-06-22T01:01:13;101024.31;;;25.94;53.20
46690;BME280;32423;45.398;10.874;2023-06-22T01:04:05;101036.44;;;25.73;53.84
46690;BME280;32423;45.398;10.874;2023-06-22T01:10:27;101028.78;;;25.81;53.65
46690;BME280;32423;45.398;10.874;2023-06-22T01:13:41;101025.84;;;25.47;55.48
46690;BME280;32423;45.398;10.874;2023-06-22T01:16:35;101024.78;;;25.30;56.04
46690;BME280;32423;45.398;10.874;2023-06-22T01:19:45;101028.69;;;25.40;56.23
46690;BME280;32423;45.398;10.874;2023-06-22T01:23:09;101026.19;;;25.60;55.29
46690;BME280;32423;45.398;10.874;2023-06-22T01:26:28;101039.56;;;25.79;54.45
46690;BME280;32423;45.398;10.874;2023-06-22T01:29:27;101039.56;;;25.75;54.77
46690;BME280;32423;45.398;10.874;2023-06-22T01:32:22;101042.78;;;25.74;55.31
46690;BME280;32423;45.398;10.874;2023-06-22T01:35:15;101036.44;;;25.73;54.96
46690;BME280;32423;45.398;10.874;2023-06-22T01:38:10;101036.06;;;25.68;55.63
46690;BME280;32423;45.398;10.874;2023-06-22T01:41:04;101036.56;;;25.55;55.95
46690;BME280;32423;45.398;10.874;2023-06-22T01:43:59;101041.31;;;25.59;55.25
46690;BME280;32423;45.398;10.874;2023-06-22T01:46:54;101043.72;;;25.53;55.53
46690;BME280;32423;45.398;10.874;2023-06-22T01:49:49;101031.03;;;25.45;55.80
46690;BME280;32423;45.398;10.874;2023-06-22T01:52:44;101031.50;;;25.36;55.91
46690;BME280;32423;45.398;10.874;2023-06-22T01:55:38;101034.34;;;25.26;56.29
46690;BME280;32423;45.398;10.874;2023-06-22T01:58:31;101031.94;;;25.31;55.86
46690;BME280;32423;45.398;10.874;2023-06-22T02:01:27;101037.91;;;25.33;56.25
46690;BME280;32423;45.398;10.874;2023-06-22T02:04:27;101046.28;;;25.26;56.26
46690;BME280;32423;45.398;10.874;2023-06-22T02:07:24;101045.50;;;25.22;56.42
46690;BME280;32423;45.398;10.874;2023-06-22T02:10:22;101040.78;;;25.16;56.58
46690;BME280;32423;45.398;10.874;2023-06-22T02:13:16;101048.03;;;24.99;57.43
46690;BME280;32423;45.398;10.874;2023-06-22T02:16:11;101045.56;;;25.11;56.87
46690;BME280;32423;45.398;10.874;2023-06-22T02:19:05;101038.38;;;25.18;56.90
46690;BME280;32423;45.398;10.874;2023-06-22T02:22:00;101049.56;;;25.10;56.95
46690;BME280;32423;45.398;10.874;2023-06-22T02:24:52;101045.59;;;25.08;57.30
46690;BME280;32423;45.398;10.874;2023-06-22T02:27:45;101046.38;;;25.12;57.06
46690;BME280;32423;45.398;10.874;2023-06-22T02:30:40;101042.41;;;25.13;56.81
46690;BME280;32423;45.398;10.874;2023-06-22T02:33:34;101051.97;;;25.08;56.37
46690;BME280;32423;45.398;10.874;2023-06-22T02:36:29;101048.00;;;25.06;57.00
46690;BME280;32423;45.398;10.874;2023-06-22T02:39:24;101054.81;;;24.91;57.35
46690;BME280;32423;45.398;10.874;2023-06-22T02:42:18;101052.00;;;24.98;57.31
46690;BME280;32423;45.398;10.874;2023-06-22T02:45:08;101053.19;;;25.04;56.96
46690;BME280;32423;45.398;10.874;2023-06-22T02:48:05;101052.44;;;24.93;57.35
46690;BME280;32423;45.398;10.874;2023-06-22T02:50:57;101046.06;;;24.92;57.67
46690;BME280;32423;45.398;10.874;2023-06-22T02:53:52;101052.81;;;24.98;57.36
46690;BME280;32423;45.398;10.874;2023-06-22T02:56:45;101052.84;;;24.91;57.48
46690;BME280;32423;45.398;10.874;2023-06-22T02:59:39;101059.50;;;25.04;57.16
46690;BME280;32423;45.398;10.874;2023-06-22T03:02:34;101052.38;;;25.00;57.27
46690;BME280;32423;45.398;10.874;2023-06-22T03:05:26;101056.00;;;24.97;57.43
46690;BME280;32423;45.398;10.874;2023-06-22T03:08:21;101054.75;;;25.08;57.15
46690;BME280;32423;45.398;10.874;2023-06-22T03:11:16;101058.28;;;25.12;57.32
46690;BME280;32423;45.398;10.874;2023-06-22T03:14:08;101056.75;;;25.01;57.06
46690;BME280;32423;45.398;10.874;2023-06-22T03:17:00;101056.72;;;25.04;56.82
46690;BME280;32423;45.398;10.874;2023-06-22T03:19:55;101057.91;;;25.10;56.59
46690;BME280;32423;45.398;10.874;2023-06-22T03:22:49;101061.44;;;25.14;56.73
46690;BME280;32423;45.398;10.874;2023-06-22T03:25:45;101065.47;;;25.06;56.61
46690;BME280;32423;45.398;10.874;2023-06-22T03:28:40;101059.13;;;25.06;57.02
46690;BME280;32423;45.398;10.874;2023-06-22T03:31:32;101051.94;;;25.12;57.00
46690;BME280;32423;45.398;10.874;2023-06-22T03:34:28;101055.88;;;25.18;56.71
46690;BME280;32423;45.398;10.874;2023-06-22T03:37:18;101061.06;;;25.16;56.60
46690;BME280;32423;45.398;10.874;2023-06-22T03:40:11;101051.53;;;25.13;56.28
46690;BME280;32423;45.398;10.874;2023-06-22T03:43:05;101059.91;;;25.06;56.48
46690;BME280;32423;45.398;10.874;2023-06-22T03:45:58;101065.84;;;25.12;56.52
46690;BME280;32423;45.398;10.874;2023-06-22T03:48:53;101051.91;;;25.16;55.92
46690;BME280;32423;45.398;10.874;2023-06-22T03:51:47;101048.72;;;25.17;55.95
46690;BME280;32423;45.398;10.874;2023-06-22T03:54:42;101048.31;;;25.22;55.64
46690;BME280;32423;45.398;10.874;2023-06-22T03:57:32;101049.13;;;25.19;55.75
46690;BME280;32423;45.398;10.874;2023-06-22T04:00:21;101051.47;;;25.24;55.51
46690;BME280;32423;45.398;10.874;2023-06-22T04:03:16;101047.91;;;25.24;55.23
46690;BME280;32423;45.398;10.874;2023-06-22T04:06:11;101049.09;;;25.23;54.59
46690;BME280;32423;45.398;10.874;2023-06-22T04:09:03;101055.81;;;25.25;55.05
46690;BME280;32423;45.398;10.874;2023-06-22T04:11:52;101052.28;;;25.21;54.79
46690;BME280;32423;45.398;10.874;2023-06-22T04:14:47;101046.25;;;25.30;54.57
46690;BME280;32423;45.398;10.874;2023-06-22T04:17:39;101047.88;;;25.27;54.16
46690;BME280;32423;45.398;10.874;2023-06-22T04:20:33;101039.47;;;25.34;54.00
46690;BME280;32423;45.398;10.874;2023-06-22T04:23:28;101046.28;;;25.26;55.21
46690;BME280;32423;45.398;10.874;2023-06-22T04:26:22;101044.66;;;25.32;54.69
46690;BME280;32423;45.398;10.874;2023-06-22T04:29:15;101046.09;;;25.54;54.89
46690;BME280;32423;45.398;10.874;2023-06-22T04:32:09;101042.81;;;25.70;53.93
46690;BME280;32423;45.398;10.874;2023-06-22T04:35:04;101046.19;;;25.92;53.78
46690;BME280;32423;45.398;10.874;2023-06-22T04:37:55;101054.56;;;25.92;54.71
46690;BME280;32423;45.398;10.874;2023-06-22T04:40:48;101047.28;;;26.05;53.93
46690;BME280;32423;45.398;10.874;2023-06-22T04:43:38;101050.47;;;26.04;53.48
46690;BME280;32423;45.398;10.874;2023-06-22T04:46:32;101045.75;;;25.97;53.61
46690;BME280;32423;45.398;10.874;2023-06-22T04:49:28;101048.16;;;25.98;53.80
46690;BME280;32423;45.398;10.874;2023-06-22T04:52:30;101053.06;;;25.84;54.48
46690;BME280;32423;45.398;10.874;2023-06-22T04:55:22;101058.19;;;25.85;54.55
46690;BME280;32423;45.398;10.874;2023-06-22T04:58:16;101050.63;;;25.89;54.87
46690;BME280;32423;45.398;10.874;2023-06-22T05:01:11;101062.47;;;25.97;54.77
46690;BME280;32423;45.398;10.874;2023-06-22T05:04:03;101060.03;;;26.03;54.65
46690;BME280;32423;45.398;10.874;2023-06-22T05:06:56;101051.63;;;26.06;54.92
46690;BME280;32423;45.398;10.874;2023-06-22T05:09:52;101049.63;;;26.10;54.98
46690;BME280;32423;45.398;10.874;2023-06-22T05:12:45;101042.03;;;26.14;54.86
46690;BME280;32423;45.398;10.874;2023-06-22T05:15:31;101047.97;;;26.16;54.93
46690;BME280;32423;45.398;10.874;2023-06-22T05:18:24;101043.97;;;26.21;54.87
46690;BME280;32423;45.398;10.874;2023-06-22T05:21:20;101037.97;;;26.26;54.85
46690;BME280;32423;45.398;10.874;2023-06-22T05:24:14;101043.50;;;26.29;54.76
46690;BME280;32423;45.398;10.874;2023-06-22T05:27:10;101047.03;;;26.33;54.79
46690;BME280;32423;45.398;10.874;2023-06-22T05:30:02;101048.22;;;26.36;54.90
46690;BME280;32423;45.398;10.874;2023-06-22T05:32:55;101050.16;;;26.39;54.86
46690;BME280;32423;45.398;10.874;2023-06-22T05:35:49;101046.53;;;26.42;54.79
46690;BME280;32423;45.398;10.874;2023-06-22T05:38:44;101041.34;;;26.44;54.48
46690;BME280;32423;45.398;10.874;2023-06-22T05:41:38;101045.28;;;26.47;54.66
46690;BME280;32423;45.398;10.874;2023-06-22T05:44:30;101046.47;;;26.49;54.76
46690;BME280;32423;45.398;10.874;2023-06-22T05:47:25;101044.47;;;26.50;54.40
46690;BME280;32423;45.398;10.874;2023-06-22T05:50:15;101049.59;;;26.55;54.76
46690;BME280;32423;45.398;10.874;2023-06-22T05:53:09;101049.19;;;26.56;54.75
46690;BME280;32423;45.398;10.874;2023-06-22T05:56:01;101047.53;;;26.59;54.47
46690;BME280;32423;45.398;10.874;2023-06-22T05:58:56;101046.69;;;26.62;54.78
46690;BME280;32423;45.398;10.874;2023-06-22T06:01:45;101043.09;;;26.65;54.47
46690;BME280;32423;45.398;10.874;2023-06-22T06:04:38;101045.03;;;26.68;54.67
46690;BME280;32423;45.398;10.874;2023-06-22T06:07:31;101045.41;;;26.70;54.62
46690;BME280;32423;45.398;10.874;2023-06-22T06:10:26;101044.56;;;26.73;54.28
46690;BME280;32423;45.398;10.874;2023-06-22T06:13:19;101045.38;;;26.73;54.27
46690;BME280;32423;45.398;10.874;2023-06-22T06:16:11;101052.13;;;26.76;54.65
46690;BME280;32423;45.398;10.874;2023-06-22T06:19:03;101048.06;;;26.80;54.67
46690;BME280;32423;45.398;10.874;2023-06-22T06:21:55;101051.22;;;26.82;54.58
46690;BME280;32423;45.398;10.874;2023-06-22T06:24:47;101047.22;;;26.83;54.47
46690;BME280;32423;45.398;10.874;2023-06-22T06:27:42;101036.03;;;26.87;53.90
46690;BME280;32423;45.398;10.874;2023-06-22T06:30:34;101036.84;;;26.88;54.03
46690;BME280;32423;45.398;10.874;2023-06-22T06:33:28;101043.94;;;26.92;54.22
46690;BME280;32423;45.398;10.874;2023-06-22T06:36:21;101047.13;;;26.94;54.20
46690;BME280;32423;45.398;10.874;2023-06-22T06:39:13;101047.13;;;26.94;53.91
46690;BME280;32423;45.398;10.874;2023-06-22T06:42:08;101053.44;;;26.98;53.95
46690;BME280;32423;45.398;10.874;2023-06-22T06:45:03;101073.38;;;27.00;53.83
46690;BME280;32423;45.398;10.874;2023-06-22T06:47:58;101066.59;;;27.01;53.90
46690;BME280;32423;45.398;10.874;2023-06-22T06:50:47;101067.72;;;27.04;53.75
46690;BME280;32423;45.398;10.874;2023-06-22T06:53:42;101064.88;;;27.07;53.97
46690;BME280;32423;45.398;10.874;2023-06-22T06:56:35;101061.31;;;27.07;53.73
46690;BME280;32423;45.398;10.874;2023-06-22T06:59:24;101053.31;;;27.09;53.46
46690;BME280;32423;45.398;10.874;2023-06-22T07:02:18;101048.91;;;27.11;53.87
46690;BME280;32423;45.398;10.874;2023-06-22T07:05:14;101046.91;;;27.12;53.67
46690;BME280;32423;45.398;10.874;2023-06-22T07:08:09;101049.25;;;27.13;53.49
46690;BME280;32423;45.398;10.874;2023-06-22T07:11:04;101038.47;;;27.15;53.33
46690;BME280;32423;45.398;10.874;2023-06-22T07:13:56;101041.59;;;27.17;53.54
46690;BME280;32423;45.398;10.874;2023-06-22T07:16:48;101042.84;;;27.16;53.30
46690;BME280;32423;45.398;10.874;2023-06-22T07:19:37;101042.00;;;27.19;53.01
46690;BME280;32423;45.398;10.874;2023-06-22T07:22:32;101038.38;;;27.22;53.32
46690;BME280;32423;45.398;10.874;2023-06-22T07:25:24;101038.72;;;27.24;53.60
46690;BME280;32423;45.398;10.874;2023-06-22T07:28:19;101051.47;;;27.26;53.75
46690;BME280;32423;45.398;10.874;2023-06-22T07:31:14;101052.28;;;27.26;53.52
46690;BME280;32423;45.398;10.874;2023-06-22T07:34:06;101043.47;;;27.28;53.26
46690;BME280;32423;45.398;10.874;2023-06-22T07:37:01;101038.25;;;27.30;53.43
46690;BME280;32423;45.398;10.874;2023-06-22T07:39:56;101039.41;;;27.32;53.50
46690;BME280;32423;45.398;10.874;2023-06-22T07:42:51;101031.44;;;27.31;53.61
46690;BME280;32423;45.398;10.874;2023-06-22T07:45:43;101033.78;;;27.36;53.75
46690;BME280;32423;45.398;10.874;2023-06-22T07:48:41;101039.75;;;27.38;53.38
46690;BME280;32423;45.398;10.874;2023-06-22T07:51:36;101038.50;;;27.39;53.54
46690;BME280;32423;45.398;10.874;2023-06-22T07:54:30;101041.69;;;27.41;53.38
46690;BME280;32423;45.398;10.874;2023-06-22T07:57:25;101038.47;;;27.42;53.51
46690;BME280;32423;45.398;10.874;2023-06-22T08:00:26;101047.63;;;27.43;53.56
46690;BME280;32423;45.398;10.874;2023-06-22T08:03:18;101037.59;;;27.45;53.35
46690;BME280;32423;45.398;10.874;2023-06-22T08:06:14;101049.16;;;27.47;53.38
46690;BME280;32423;45.398;10.874;2023-06-22T08:09:04;101058.72;;;27.50;53.07
46690;BME280;32423;45.398;10.874;2023-06-22T08:11:54;101053.50;;;27.52;53.18
46690;BME280;32423;45.398;10.874;2023-06-22T08:14:48;101052.66;;;27.55;53.19
46690;BME280;32423;45.398;10.874;2023-06-22T08:17:43;101057.41;;;27.58;53.31
46690;BME280;32423;45.398;10.874;2023-06-22T08:20:35;101060.56;;;27.60;52.94
46690;BME280;32423;45.398;10.874;2023-06-22T08:23:27;101057.34;;;27.61;52.91
46690;BME280;32423;45.398;10.874;2023-06-22T08:26:19;101054.13;;;27.63;53.31
46690;BME280;32423;45.398;10.874;2023-06-22T08:29:14;101050.06;;;27.68;52.99
46690;BME280;32423;45.398;10.874;2023-06-22T08:32:06;101055.22;;;27.69;52.40
46690;BME280;32423;45.398;10.874;2023-06-22T08:35:00;101050.00;;;27.71;52.59
46690;BME280;32423;45.398;10.874;2023-06-22T08:37:50;101038.81;;;27.71;52.74
46690;BME280;32423;45.398;10.874;2023-06-22T08:40:47;101040.41;;;27.72;52.58
46690;BME280;32423;45.398;10.874;2023-06-22T08:43:39;101045.94;;;27.76;52.56
46690;BME280;32423;45.398;10.874;2023-06-22T08:46:34;101037.13;;;27.77;52.49
46690;BME280;32423;45.398;10.874;2023-06-22T08:49:28;101029.09;;;27.79;52.29
46690;BME280;32423;45.398;10.874;2023-06-22T08:52:21;101040.66;;;27.81;52.65
46690;BME280;32423;45.398;10.874;2023-06-22T08:55:13;101036.19;;;27.84;52.51
46690;BME280;32423;45.398;10.874;2023-06-22T08:58:05;101031.06;;;27.82;52.63
46690;BME280;32423;45.398;10.874;2023-06-22T09:01:00;101025.81;;;27.84;52.60
46690;BME280;32423;45.398;10.874;2023-06-22T09:03:49;101027.41;;;27.85;52.47
46690;BME280;32423;45.398;10.874;2023-06-22T09:06:43;101024.19;;;27.87;52.61
46690;BME280;32423;45.398;10.874;2023-06-22T09:09:37;101030.91;;;27.89;52.27
46690;BME280;32423;45.398;10.874;2023-06-22T09:12:30;101025.69;;;27.91;52.44
46690;BME280;32423;45.398;10.874;2023-06-22T09:15:24;101020.09;;;27.91;52.13
46690;BME280;32423;45.398;10.874;2023-06-22T09:18:19;101025.22;;;27.96;52.19
46690;BME280;32423;45.398;10.874;2023-06-22T09:21:13;101023.19;;;27.97;52.05
46690;BME280;32423;45.398;10.874;2023-06-22T09:24:09;101026.00;;;27.97;51.85
46690;BME280;32423;45.398;10.874;2023-06-22T09:27:03;101020.72;;;28.02;51.92
46690;BME280;32423;45.398;10.874;2023-06-22T09:29:55;101016.31;;;28.01;51.79
46690;BME280;32423;45.398;10.874;2023-06-22T09:32:50;101015.47;;;28.04;51.57
46690;BME280;32423;45.398;10.874;2023-06-22T09:35:42;101007.88;;;28.05;51.59
46690;BME280;32423;45.398;10.874;2023-06-22T09:38:34;101009.03;;;28.07;51.74
46690;BME280;32423;45.398;10.874;2023-06-22T09:41:26;101005.78;;;28.09;51.14
46690;BME280;32423;45.398;10.874;2023-06-22T09:44:20;100991.38;;;28.11;51.55
46690;BME280;32423;45.398;10.874;2023-06-22T09:47:12;100990.13;;;28.15;51.30
46690;BME280;32423;45.398;10.874;2023-06-22T09:50:08;100980.91;;;28.18;51.35
46690;BME280;32423;45.398;10.874;2023-06-22T09:53:00;100988.84;;;28.20;51.20
46690;BME280;32423;45.398;10.874;2023-06-22T09:55:55;100966.41;;;28.23;50.94
46690;BME280;32423;45.398;10.874;2023-06-22T09:58:49;100957.22;;;28.23;51.26
46690;BME280;32423;45.398;10.874;2023-06-22T10:01:42;100957.06;;;28.30;50.75
46690;BME280;32423;45.398;10.874;2023-06-22T10:04:36;100953.41;;;28.33;50.66
46690;BME280;32423;45.398;10.874;2023-06-22T10:07:28;100956.94;;;28.37;51.01
46690;BME280;32423;45.398;10.874;2023-06-22T10:10:23;100949.38;;;36.12;34.05
46690;BME280;32423;45.398;10.874;2023-06-22T10:13:15;100956.06;;;39.97;27.25
46690;BME280;32423;45.398;10.874;2023-06-22T10:16:08;100946.59;;;37.55;29.24
46690;BME280;32423;45.398;10.874;2023-06-22T10:19:00;100950.81;;;34.19;32.76
46690;BME280;32423;45.398;10.874;2023-06-22T10:21:52;100953.88;;;32.99;34.02
46690;BME280;32423;45.398;10.874;2023-06-22T10:24:47;100958.28;;;33.49;35.10
46690;BME280;32423;45.398;10.874;2023-06-22T10:27:41;100959.25;;;33.73;34.31
46690;BME280;32423;45.398;10.874;2023-06-22T10:30:44;100946.88;;;34.34;34.18
46690;BME280;32423;45.398;10.874;2023-06-22T10:33:39;100957.06;;;35.34;32.33
46690;BME280;32423;45.398;10.874;2023-06-22T10:36:35;100961.00;;;40.02;25.88
46690;BME280;32423;45.398;10.874;2023-06-22T10:39:30;100968.19;;;41.70;23.20
46690;BME280;32423;45.398;10.874;2023-06-22T10:42:24;100955.50;;;42.78;22.07
46690;BME280;32423;45.398;10.874;2023-06-22T10:45:19;100959.25;;;43.21;21.65
46690;BME280;32423;45.398;10.874;2023-06-22T10:48:12;100953.34;;;43.14;21.57
46690;BME280;32423;45.398;10.874;2023-06-22T10:51:06;100969.72;;;42.59;21.95
46690;BME280;32423;45.398;10.874;2023-06-22T10:54:01;100958.34;;;43.32;21.45
46690;BME280;32423;45.398;10.874;2023-06-22T10:56:53;100954.88;;;44.01;20.68
46690;BME280;32423;45.398;10.874;2023-06-22T10:59:38;100958.97;;;44.24;20.35
46690;BME280;32423;45.398;10.874;2023-06-22T11:02:32;100957.28;;;42.86;21.92
46690;BME280;32423;45.398;10.874;2023-06-22T11:05:27;100959.34;;;45.24;19.46
46690;BME280;32423;45.398;10.874;2023-06-22T11:08:21;100962.38;;;43.66;20.88
46690;BME280;32423;45.398;10.874;2023-06-22T11:11:14;100947.59;;;40.92;23.82
46690;BME280;32423;45.398;10.874;2023-06-22T11:14:09;100930.06;;;37.18;28.96
46690;BME280;32423;45.398;10.874;2023-06-22T11:16:58;100937.19;;;34.78;32.69
46690;BME280;32423;45.398;10.874;2023-06-22T11:19:51;100923.50;;;34.16;34.31
46690;BME280;32423;45.398;10.874;2023-06-22T11:22:46;100912.19;;;33.25;35.78
46690;BME280;32423;45.398;10.874;2023-06-22T11:25:35;100917.38;;;32.86;36.61
46690;BME280;32423;45.398;10.874;2023-06-22T11:28:27;100914.94;;;32.14;37.88
46690;BME280;32423;45.398;10.874;2023-06-22T11:31:22;100916.22;;;32.22;38.15
46690;BME280;32423;45.398;10.874;2023-06-22T11:34:16;100912.13;;;32.01;38.81
46690;BME280;32423;45.398;10.874;2023-06-22T11:37:12;100910.63;;;31.88;39.03
46690;BME280;32423;45.398;10.874;2023-06-22T11:40:07;100894.47;;;31.79;39.16
46690;BME280;32423;45.398;10.874;2023-06-22T11:43:02;100885.38;;;31.75;39.46
46690;BME280;32423;45.398;10.874;2023-06-22T11:45:56;100883.63;;;31.56;39.73
46690;BME280;32423;45.398;10.874;2023-06-22T11:48:48;100876.78;;;31.10;41.23
46690;BME280;32423;45.398;10.874;2023-06-22T11:51:38;100868.34;;;30.97;42.29
46690;BME280;32423;45.398;10.874;2023-06-22T11:54:33;100868.47;;;31.75;39.87
46690;BME280;32423;45.398;10.874;2023-06-22T11:57:25;100869.25;;;31.54;40.25
46690;BME280;32423;45.398;10.874;2023-06-22T12:00:20;100860.47;;;31.17;41.28
46690;BME280;32423;45.398;10.874;2023-06-22T12:03:13;100862.94;;;31.15;41.29
46690;BME280;32423;45.398;10.874;2023-06-22T12:06:07;100848.25;;;30.73;42.66
46690;BME280;32423;45.398;10.874;2023-06-22T12:08:59;100848.47;;;31.04;41.23
46690;BME280;32423;45.398;10.874;2023-06-22T12:11:55;100844.97;;;31.47;40.45
46690;BME280;32423;45.398;10.874;2023-06-22T12:14:49;100844.03;;;31.28;40.95
46690;BME280;32423;45.398;10.874;2023-06-22T12:17:44;100836.69;;;31.31;40.99
46690;BME280;32423;45.398;10.874;2023-06-22T12:20:36;100824.50;;;30.99;42.06
46690;BME280;32423;45.398;10.874;2023-06-22T12:23:28;100819.63;;;31.81;40.21
46690;BME280;32423;45.398;10.874;2023-06-22T12:26:24;100824.28;;;31.75;40.84
46690;BME280;32423;45.398;10.874;2023-06-22T12:29:14;100821.53;;;31.63;40.54
46690;BME280;32423;45.398;10.874;2023-06-22T12:32:10;100814.50;;;31.46;41.19
46690;BME280;32423;45.398;10.874;2023-06-22T12:35:04;100807.63;;;31.47;40.96
46690;BME280;32423;45.398;10.874;2023-06-22T12:37:56;100799.63;;;31.58;41.17
46690;BME280;32423;45.398;10.874;2023-06-22T12:40:51;100794.34;;;31.25;41.49
46690;BME280;32423;45.398;10.874;2023-06-22T12:43:46;100802.34;;;31.70;40.33
46690;BME280;32423;45.398;10.874;2023-06-22T12:46:41;100799.19;;;31.47;41.11
46690;BME280;32423;45.398;10.874;2023-06-22T12:49:36;100801.56;;;31.48;41.05
46690;BME280;32423;45.398;10.874;2023-06-22T12:52:28;100802.75;;;31.60;41.04
46690;BME280;32423;45.398;10.874;2023-06-22T12:55:20;100796.38;;;31.90;41.40
46690;BME280;32423;45.398;10.874;2023-06-22T12:58:15;100795.44;;;31.62;41.37
46690;BME280;32423;45.398;10.874;2023-06-22T13:01:09;100800.94;;;31.31;41.65
46690;BME280;32423;45.398;10.874;2023-06-22T13:04:04;100801.63;;;32.32;40.39
46690;BME280;32423;45.398;10.874;2023-06-22T13:07:00;100793.69;;;32.39;39.27
46690;BME280;32423;45.398;10.874;2023-06-22T13:09:55;100790.94;;;32.17;40.19
46690;BME280;32423;45.398;10.874;2023-06-22T13:12:47;100788.75;;;32.21;39.95
46690;BME280;32423;45.398;10.874;2023-06-22T13:15:42;100787.91;;;32.43;38.99
46690;BME280;32423;45.398;10.874;2023-06-22T13:18:35;100784.09;;;32.28;39.74
46690;BME280;32423;45.398;10.874;2023-06-22T13:21:27;100782.25;;;32.34;39.23
46690;BME280;32423;45.398;10.874;2023-06-22T13:24:22;100781.84;;;32.44;40.24
46690;BME280;32423;45.398;10.874;2023-06-22T13:27:16;100784.25;;;32.64;38.99
46690;BME280;32423;45.398;10.874;2023-06-22T13:30:10;100778.47;;;32.28;38.77
46690;BME280;32423;45.398;10.874;2023-06-22T13:33:06;100771.75;;;31.94;40.80
46690;BME280;32423;45.398;10.874;2023-06-22T13:36:00;100772.84;;;31.75;40.86
46690;BME280;32423;45.398;10.874;2023-06-22T13:38:54;100773.78;;;32.64;38.39
46690;BME280;32423;45.398;10.874;2023-06-22T13:41:50;100774.63;;;32.43;39.10
46690;BME280;32423;45.398;10.874;2023-06-22T13:44:44;100770.38;;;32.30;39.66
46690;BME280;32423;45.398;10.874;2023-06-22T13:47:39;100772.94;;;32.46;38.59
46690;BME280;32423;45.398;10.874;2023-06-22T13:50:34;100778.69;;;32.42;38.72
46690;BME280;32423;45.398;10.874;2023-06-22T13:53:29;100774.06;;;32.17;39.70
46690;BME280;32423;45.398;10.874;2023-06-22T13:56:23;100776.22;;;32.13;38.85
46690;BME280;32423;45.398;10.874;2023-06-22T13:59:18;100780.09;;;31.85;38.81
46690;BME280;32423;45.398;10.874;2023-06-22T14:02:13;100781.63;;;31.77;40.45
46690;BME280;32423;45.398;10.874;2023-06-22T14:05:07;100777.53;;;32.31;38.47
46690;BME280;32423;45.398;10.874;2023-06-22T14:07:57;100775.13;;;32.51;37.57
46690;BME280;32423;45.398;10.874;2023-06-22T14:10:50;100784.63;;;32.35;38.17
46690;BME280;32423;45.398;10.874;2023-06-22T14:13:46;100782.19;;;31.94;39.94
46690;BME280;32423;45.398;10.874;2023-06-22T14:16:40;100785.72;;;31.41;40.66
46690;BME280;32423;45.398;10.874;2023-06-22T14:19:32;100785.66;;;31.32;41.18
46690;BME280;32423;45.398;10.874;2023-06-22T14:22:24;100783.38;;;31.40;41.07
46690;BME280;32423;45.398;10.874;2023-06-22T14:25:19;100781.34;;;31.19;41.47
46690;BME280;32423;45.398;10.874;2023-06-22T14:28:13;100778.31;;;31.35;40.13
46690;BME280;32423;45.398;10.874;2023-06-22T14:31:05;100775.66;;;31.75;39.44
46690;BME280;32423;45.398;10.874;2023-06-22T14:33:57;100786.00;;;32.00;38.77
46690;BME280;32423;45.398;10.874;2023-06-22T14:36:52;100782.00;;;31.88;38.31
46690;BME280;32423;45.398;10.874;2023-06-22T14:39:47;100768.59;;;31.70;39.67
46690;BME280;32423;45.398;10.874;2023-06-22T14:42:41;100778.56;;;31.84;39.76
46690;BME280;32423;45.398;10.874;2023-06-22T14:45:36;100771.75;;;31.94;38.15
46690;BME280;32423;45.398;10.874;2023-06-22T14:48:30;100766.28;;;31.69;39.93
46690;BME280;32423;45.398;10.874;2023-06-22T14:51:25;100770.19;;;31.71;39.33
46690;BME280;32423;45.398;10.874;2023-06-22T14:54:20;100766.78;;;31.76;39.85
46690;BME280;32423;45.398;10.874;2023-06-22T14:57:14;100766.53;;;32.14;39.65
46690;BME280;32423;45.398;10.874;2023-06-22T15:00:11;100769.75;;;32.04;39.26